SIA324 WSSS-EHAM
Flight info
| Callsign | SIA324 |
|---|---|
| Flight time | N/A |
| Altitude | 34000 |
| Route | VMR6A VMR B469 VPK M751 VKB A334 HTY W14 PUT L515 OBMOG M770 KAKID M875 DI N644 LEMOD A909 NINOP B475 DOLOS B449 MAMED P130 BODKA M747 SULEL N449 TELLI DCT INDUR UN161 ERZ UL746 ODERO DCT OPT DCT IRLOX DCT EMPOS DCT FOGRE DCT PEPIK DCT ELMEK DCT NAVEK DCT VEXIL DCT KATCE DCT APEBE DCT NORKU |
| Aircraft | A359/H-SDE1E2E3GHIJ1J2J3J5M1P2RWXYZ/LB1D1 |
Departure
| Time | N/A |
|---|---|
| Airport | Singapore Changi Airport (WSSS) |
Arrival
| Time | 2026-05-06 05:04 |
|---|---|
| Airport | Amsterdam Airport Schiphol (EHAM) |
| Time | Latitude | Longitude | Altitude | Speed | Heading |
|---|---|---|---|---|---|
| 2026-05-06 03:54 | 49.31364 | 15.67932 | 37824 ft | 467 kts | 296° |
| 2026-05-06 03:54 | 49.32983 | 15.63614 | 37823 ft | 468 kts | 295° |
| 2026-05-06 03:54 | 49.36162 | 15.54925 | 37824 ft | 467 kts | 294° |
| 2026-05-06 03:55 | 49.39330 | 15.46304 | 37824 ft | 466 kts | 295° |
| 2026-05-06 03:55 | 49.42540 | 15.37570 | 37816 ft | 466 kts | 295° |
| 2026-05-06 03:56 | 49.45698 | 15.28935 | 37813 ft | 467 kts | 295° |
| 2026-05-06 03:56 | 49.48891 | 15.20160 | 37813 ft | 467 kts | 295° |
| 2026-05-06 03:57 | 49.52013 | 15.11495 | 37814 ft | 466 kts | 294° |
| 2026-05-06 03:57 | 49.55161 | 15.02758 | 37815 ft | 467 kts | 294° |
| 2026-05-06 03:58 | 49.58316 | 14.94008 | 37814 ft | 468 kts | 294° |
| 2026-05-06 03:58 | 49.61441 | 14.85208 | 37817 ft | 468 kts | 294° |
| 2026-05-06 03:59 | 49.64561 | 14.76399 | 37813 ft | 468 kts | 294° |
| 2026-05-06 03:59 | 49.67703 | 14.67597 | 37804 ft | 469 kts | 294° |
| 2026-05-06 04:00 | 49.70843 | 14.58766 | 37804 ft | 469 kts | 294° |
| 2026-05-06 04:00 | 49.74002 | 14.49914 | 37804 ft | 470 kts | 294° |
| 2026-05-06 04:01 | 49.77120 | 14.41039 | 37804 ft | 471 kts | 293° |
| 2026-05-06 04:01 | 49.80229 | 14.32108 | 37804 ft | 472 kts | 294° |
| 2026-05-06 04:02 | 49.83390 | 14.23183 | 37805 ft | 473 kts | 294° |
| 2026-05-06 04:02 | 49.86536 | 14.14232 | 37805 ft | 472 kts | 294° |
| 2026-05-06 04:03 | 49.89646 | 14.05256 | 37803 ft | 473 kts | 294° |
| 2026-05-06 04:03 | 49.92785 | 13.96369 | 37804 ft | 473 kts | 295° |
| 2026-05-06 04:04 | 49.96062 | 13.87418 | 37805 ft | 475 kts | 295° |
| 2026-05-06 04:04 | 49.99339 | 13.78528 | 37813 ft | 474 kts | 295° |
| 2026-05-06 04:05 | 50.02580 | 13.69674 | 37813 ft | 474 kts | 295° |
| 2026-05-06 04:05 | 50.05828 | 13.60773 | 37812 ft | 473 kts | 295° |
| 2026-05-06 04:06 | 50.09017 | 13.51817 | 37815 ft | 473 kts | 294° |
| 2026-05-06 04:06 | 50.12225 | 13.42848 | 37808 ft | 474 kts | 294° |
| 2026-05-06 04:07 | 50.15448 | 13.33890 | 37803 ft | 474 kts | 294° |
| 2026-05-06 04:07 | 50.18668 | 13.24894 | 37805 ft | 475 kts | 295° |
| 2026-05-06 04:08 | 50.21890 | 13.15898 | 37805 ft | 475 kts | 294° |
| 2026-05-06 04:08 | 50.25086 | 13.06857 | 37804 ft | 475 kts | 294° |
| 2026-05-06 04:09 | 50.28261 | 12.97811 | 37805 ft | 475 kts | 294° |
| 2026-05-06 04:09 | 50.31362 | 12.88675 | 37804 ft | 475 kts | 292° |
| 2026-05-06 04:10 | 50.34276 | 12.79425 | 37795 ft | 474 kts | 291° |
| 2026-05-06 04:10 | 50.37148 | 12.70144 | 37794 ft | 474 kts | 290° |
| 2026-05-06 04:11 | 50.40194 | 12.60970 | 37787 ft | 477 kts | 295° |
| 2026-05-06 04:11 | 50.43607 | 12.52022 | 37786 ft | 479 kts | 296° |
| 2026-05-06 04:12 | 50.47064 | 12.43180 | 37777 ft | 479 kts | 296° |
| 2026-05-06 04:12 | 50.50545 | 12.34278 | 37773 ft | 477 kts | 296° |
| 2026-05-06 04:13 | 50.54014 | 12.25358 | 37771 ft | 479 kts | 296° |
| 2026-05-06 04:13 | 50.57481 | 12.16427 | 37769 ft | 478 kts | 296° |
| 2026-05-06 04:14 | 50.60950 | 12.07479 | 37769 ft | 479 kts | 296° |
| 2026-05-06 04:14 | 50.64418 | 11.98513 | 37768 ft | 479 kts | 296° |
| 2026-05-06 04:15 | 50.67880 | 11.89518 | 37765 ft | 480 kts | 295° |
| 2026-05-06 04:15 | 50.71288 | 11.80469 | 37767 ft | 480 kts | 296° |
| 2026-05-06 04:16 | 50.74698 | 11.71417 | 37765 ft | 480 kts | 296° |
| 2026-05-06 04:16 | 50.78124 | 11.62349 | 37757 ft | 481 kts | 296° |
| 2026-05-06 04:17 | 50.81559 | 11.53273 | 37758 ft | 481 kts | 296° |
| 2026-05-06 04:17 | 50.84978 | 11.44174 | 37752 ft | 481 kts | 295° |
| 2026-05-06 04:18 | 50.88392 | 11.35060 | 37751 ft | 482 kts | 296° |
| 2026-05-06 04:18 | 50.91815 | 11.25919 | 37748 ft | 482 kts | 296° |
| 2026-05-06 04:19 | 50.95238 | 11.16791 | 37745 ft | 482 kts | 296° |
| 2026-05-06 04:19 | 50.98647 | 11.07645 | 37749 ft | 482 kts | 296° |
| 2026-05-06 04:20 | 51.02025 | 10.98442 | 37750 ft | 482 kts | 296° |
| 2026-05-06 04:20 | 51.05390 | 10.89283 | 37750 ft | 484 kts | 296° |
| 2026-05-06 04:21 | 51.08802 | 10.80070 | 37747 ft | 483 kts | 296° |
| 2026-05-06 04:21 | 51.12191 | 10.70815 | 37751 ft | 484 kts | 295° |
| 2026-05-06 04:22 | 51.15545 | 10.61529 | 37751 ft | 484 kts | 296° |
| 2026-05-06 04:23 | 51.20603 | 10.47569 | 37753 ft | 486 kts | 296° |
| 2026-05-06 04:23 | 51.23969 | 10.38241 | 37745 ft | 485 kts | 296° |
| 2026-05-06 04:24 | 51.27267 | 10.28819 | 37749 ft | 485 kts | 294° |
| 2026-05-06 04:24 | 51.30330 | 10.19240 | 37752 ft | 482 kts | 292° |
| 2026-05-06 04:25 | 51.32837 | 10.11177 | 37746 ft | 484 kts | 293° |
| 2026-05-06 04:25 | 51.36375 | 9.99988 | 37747 ft | 485 kts | 293° |
| 2026-05-06 04:26 | 51.38915 | 9.91986 | 37744 ft | 484 kts | 294° |
| 2026-05-06 04:26 | 51.42003 | 9.82368 | 37748 ft | 486 kts | 294° |
| 2026-05-06 04:27 | 51.45082 | 9.72716 | 37748 ft | 486 kts | 294° |
| 2026-05-06 04:27 | 51.48127 | 9.63048 | 37751 ft | 486 kts | 294° |
| 2026-05-06 04:28 | 51.51171 | 9.53347 | 37750 ft | 487 kts | 293° |
| 2026-05-06 04:28 | 51.54200 | 9.43605 | 37745 ft | 487 kts | 293° |
| 2026-05-06 04:29 | 51.57212 | 9.33851 | 37752 ft | 487 kts | 293° |
| 2026-05-06 04:29 | 51.60218 | 9.24121 | 37748 ft | 486 kts | 293° |
| 2026-05-06 04:30 | 51.63212 | 9.14376 | 37748 ft | 486 kts | 292° |
| 2026-05-06 04:30 | 51.66196 | 9.04609 | 37758 ft | 486 kts | 294° |
| 2026-05-06 04:31 | 51.69188 | 8.94853 | 37758 ft | 486 kts | 293° |
| 2026-05-06 04:31 | 51.72172 | 8.85054 | 37758 ft | 487 kts | 293° |
| 2026-05-06 04:32 | 51.75131 | 8.75233 | 37750 ft | 486 kts | 292° |
| 2026-05-06 04:32 | 51.77821 | 8.65304 | 37747 ft | 486 kts | 290° |
| 2026-05-06 04:33 | 51.80485 | 8.55283 | 37757 ft | 486 kts | 290° |
| 2026-05-06 04:33 | 51.83187 | 8.45211 | 37760 ft | 485 kts | 291° |
| 2026-05-06 04:34 | 51.85849 | 8.35247 | 37767 ft | 486 kts | 290° |
| 2026-05-06 04:34 | 51.88522 | 8.25202 | 37774 ft | 486 kts | 291° |
| 2026-05-06 04:35 | 51.91193 | 8.15134 | 37776 ft | 487 kts | 290° |
| 2026-05-06 04:35 | 51.93854 | 8.05071 | 37786 ft | 486 kts | 290° |
| 2026-05-06 04:36 | 51.96519 | 7.95006 | 37792 ft | 486 kts | 290° |
| 2026-05-06 04:36 | 51.99175 | 7.84942 | 37794 ft | 486 kts | 291° |
| 2026-05-06 04:37 | 52.01805 | 7.74855 | 37795 ft | 486 kts | 291° |
| 2026-05-06 04:37 | 52.04384 | 7.64904 | 37203 ft | 473 kts | 290° |
| 2026-05-06 04:37 | 52.05661 | 7.59962 | 36389 ft | 477 kts | 290° |
| 2026-05-06 04:38 | 52.06946 | 7.54970 | 35673 ft | 480 kts | 290° |
| 2026-05-06 04:38 | 52.08227 | 7.49951 | 34941 ft | 483 kts | 290° |
| 2026-05-06 04:38 | 52.09520 | 7.44899 | 34162 ft | 486 kts | 290° |
| 2026-05-06 04:38 | 52.10831 | 7.39802 | 33321 ft | 491 kts | 289° |
| 2026-05-06 04:39 | 52.12147 | 7.34670 | 32451 ft | 495 kts | 290° |
| 2026-05-06 04:39 | 52.13469 | 7.29495 | 31548 ft | 498 kts | 290° |
| 2026-05-06 04:39 | 52.14807 | 7.24253 | 30607 ft | 502 kts | 290° |
| 2026-05-06 04:39 | 52.16141 | 7.19019 | 29917 ft | 499 kts | 291° |
| 2026-05-06 04:40 | 52.17462 | 7.13819 | 29259 ft | 495 kts | 290° |
| 2026-05-06 04:40 | 52.18775 | 7.08651 | 28605 ft | 490 kts | 291° |
| 2026-05-06 04:40 | 52.20073 | 7.03544 | 27946 ft | 486 kts | 290° |
| 2026-05-06 04:40 | 52.21475 | 6.98558 | 27318 ft | 483 kts | 297° |
| 2026-05-06 04:41 | 52.23349 | 6.94044 | 26673 ft | 480 kts | 306° |
| 2026-05-06 04:41 | 52.25433 | 6.89815 | 26034 ft | 476 kts | 308° |
| 2026-05-06 04:41 | 52.27533 | 6.85668 | 25388 ft | 472 kts | 308° |
| 2026-05-06 04:41 | 52.29605 | 6.81555 | 24769 ft | 467 kts | 308° |
| 2026-05-06 04:42 | 52.31658 | 6.77467 | 24115 ft | 463 kts | 308° |
| 2026-05-06 04:42 | 52.33653 | 6.73471 | 23492 ft | 457 kts | 308° |
| 2026-05-06 04:42 | 52.35653 | 6.69454 | 22870 ft | 452 kts | 308° |
| 2026-05-06 04:42 | 52.37618 | 6.65475 | 22252 ft | 447 kts | 308° |
| 2026-05-06 04:43 | 52.39570 | 6.61545 | 21647 ft | 442 kts | 308° |
| 2026-05-06 04:43 | 52.41494 | 6.57648 | 21011 ft | 438 kts | 307° |
| 2026-05-06 04:43 | 52.43395 | 6.53792 | 20387 ft | 432 kts | 307° |
| 2026-05-06 04:43 | 52.45237 | 6.49937 | 19770 ft | 427 kts | 304° |
| 2026-05-06 04:44 | 52.46608 | 6.45699 | 19163 ft | 419 kts | 288° |
| 2026-05-06 04:44 | 52.47206 | 6.41077 | 18551 ft | 411 kts | 275° |
| 2026-05-06 04:44 | 52.47457 | 6.36449 | 17940 ft | 406 kts | 273° |
| 2026-05-06 04:44 | 52.47664 | 6.31860 | 17331 ft | 401 kts | 273° |
| 2026-05-06 04:45 | 52.47867 | 6.27333 | 16729 ft | 396 kts | 273° |
| 2026-05-06 04:45 | 52.48069 | 6.22838 | 16123 ft | 393 kts | 273° |
| 2026-05-06 04:45 | 52.48280 | 6.18377 | 15518 ft | 391 kts | 274° |
| 2026-05-06 04:45 | 52.48494 | 6.13953 | 14915 ft | 388 kts | 274° |
| 2026-05-06 04:46 | 52.48708 | 6.09568 | 14319 ft | 385 kts | 274° |
| 2026-05-06 04:46 | 52.48920 | 6.05203 | 13723 ft | 382 kts | 274° |
| 2026-05-06 04:46 | 52.49128 | 6.00878 | 13130 ft | 379 kts | 274° |
| 2026-05-06 04:46 | 52.49334 | 5.96574 | 12544 ft | 378 kts | 275° |
| 2026-05-06 04:47 | 52.49539 | 5.92298 | 11945 ft | 373 kts | 274° |
| 2026-05-06 04:47 | 52.49735 | 5.88095 | 11524 ft | 360 kts | 275° |
| 2026-05-06 04:47 | 52.49912 | 5.84165 | 11408 ft | 330 kts | 274° |
| 2026-05-06 04:47 | 52.50071 | 5.80546 | 11321 ft | 305 kts | 275° |
| 2026-05-06 04:48 | 52.50215 | 5.77139 | 11223 ft | 295 kts | 274° |
| 2026-05-06 04:48 | 52.50365 | 5.73812 | 11103 ft | 289 kts | 273° |
| 2026-05-06 04:48 | 52.50509 | 5.70566 | 10967 ft | 281 kts | 275° |
| 2026-05-06 04:48 | 52.50647 | 5.67403 | 10852 ft | 275 kts | 275° |
| 2026-05-06 04:49 | 52.50787 | 5.64296 | 10545 ft | 273 kts | 275° |
| 2026-05-06 04:49 | 52.50943 | 5.61184 | 10229 ft | 274 kts | 275° |
| 2026-05-06 04:49 | 52.50915 | 5.58069 | 9930 ft | 274 kts | 261° |
| 2026-05-06 04:49 | 52.50236 | 5.55151 | 9722 ft | 282 kts | 237° |
| 2026-05-06 04:50 | 52.49034 | 5.52502 | 9650 ft | 293 kts | 231° |
| 2026-05-06 04:50 | 52.47735 | 5.49914 | 9522 ft | 293 kts | 230° |
| 2026-05-06 04:50 | 52.46430 | 5.47359 | 9104 ft | 292 kts | 230° |
| 2026-05-06 04:50 | 52.45128 | 5.44819 | 8802 ft | 292 kts | 230° |
| 2026-05-06 04:51 | 52.43819 | 5.42257 | 8550 ft | 292 kts | 229° |
| 2026-05-06 04:51 | 52.42521 | 5.39704 | 8334 ft | 291 kts | 229° |
| 2026-05-06 04:51 | 52.41230 | 5.37152 | 8107 ft | 291 kts | 230° |
| 2026-05-06 04:51 | 52.40383 | 5.35461 | 7969 ft | 289 kts | 229° |
| 2026-05-06 04:52 | 52.39792 | 5.34289 | 7849 ft | 289 kts | 230° |
| 2026-05-06 04:52 | 52.38530 | 5.31727 | 7627 ft | 289 kts | 230° |
| 2026-05-06 04:52 | 52.37262 | 5.29180 | 7397 ft | 289 kts | 229° |
| 2026-05-06 04:52 | 52.35982 | 5.26653 | 7173 ft | 287 kts | 230° |
| 2026-05-06 04:53 | 52.34715 | 5.24127 | 6955 ft | 287 kts | 230° |
| 2026-05-06 04:53 | 52.33459 | 5.21602 | 6722 ft | 286 kts | 231° |
| 2026-05-06 04:53 | 52.32203 | 5.19077 | 6499 ft | 286 kts | 230° |
| 2026-05-06 04:53 | 52.30932 | 5.16577 | 6276 ft | 286 kts | 229° |
| 2026-05-06 04:54 | 52.29654 | 5.14102 | 6052 ft | 285 kts | 229° |
| 2026-05-06 04:54 | 52.28386 | 5.11639 | 5884 ft | 277 kts | 229° |
| 2026-05-06 04:54 | 52.27209 | 5.09287 | 5694 ft | 259 kts | 231° |
| 2026-05-06 04:54 | 52.26090 | 5.07027 | 5491 ft | 253 kts | 231° |
| 2026-05-06 04:55 | 52.24962 | 5.04841 | 5282 ft | 252 kts | 226° |
| 2026-05-06 04:55 | 52.23597 | 5.03078 | 5046 ft | 251 kts | 212° |
| 2026-05-06 04:55 | 52.22117 | 5.01592 | 4876 ft | 249 kts | 210° |
| 2026-05-06 04:55 | 52.20608 | 5.00164 | 4765 ft | 251 kts | 208° |
| 2026-05-06 04:56 | 52.19094 | 4.98744 | 4591 ft | 251 kts | 208° |
| 2026-05-06 04:56 | 52.17592 | 4.97308 | 4397 ft | 249 kts | 209° |
| 2026-05-06 04:56 | 52.16099 | 4.95865 | 4204 ft | 250 kts | 208° |
| 2026-05-06 04:56 | 52.14607 | 4.94419 | 4000 ft | 249 kts | 211° |
| 2026-05-06 04:57 | 52.13121 | 4.92953 | 3808 ft | 249 kts | 210° |
| 2026-05-06 04:57 | 52.11772 | 4.91336 | 3646 ft | 235 kts | 227° |
| 2026-05-06 04:57 | 52.11073 | 4.89074 | 3490 ft | 219 kts | 262° |
| 2026-05-06 04:57 | 52.10965 | 4.86686 | 3328 ft | 208 kts | 273° |
| 2026-05-06 04:58 | 52.10977 | 4.84361 | 3181 ft | 202 kts | 276° |
| 2026-05-06 04:58 | 52.11035 | 4.82090 | 3005 ft | 199 kts | 282° |
| 2026-05-06 04:58 | 52.11514 | 4.80069 | 2842 ft | 183 kts | 314° |
| 2026-05-06 04:58 | 52.12456 | 4.78869 | 2710 ft | 166 kts | 336° |
| 2026-05-06 04:59 | 52.13458 | 4.78040 | 2566 ft | 161 kts | 339° |
| 2026-05-06 04:59 | 52.14460 | 4.77256 | 2466 ft | 155 kts | 339° |
| 2026-05-06 04:59 | 52.15426 | 4.76718 | 2341 ft | 141 kts | 354° |
| 2026-05-06 04:59 | 52.16397 | 4.76630 | 2224 ft | 139 kts | 4° |
| 2026-05-06 05:00 | 52.17347 | 4.76689 | 2107 ft | 139 kts | 6° |
| 2026-05-06 05:00 | 52.18319 | 4.76751 | 2012 ft | 140 kts | 4° |
| 2026-05-06 05:00 | 52.19293 | 4.76837 | 1910 ft | 140 kts | 6° |
| 2026-05-06 05:00 | 52.20256 | 4.76933 | 1736 ft | 138 kts | 6° |
| 2026-05-06 05:01 | 52.21219 | 4.77018 | 1553 ft | 137 kts | 5° |
| 2026-05-06 05:01 | 52.22147 | 4.77097 | 1368 ft | 130 kts | 5° |
| 2026-05-06 05:01 | 52.23039 | 4.77176 | 1200 ft | 128 kts | 4° |
| 2026-05-06 05:01 | 52.23927 | 4.77259 | 1031 ft | 128 kts | 5° |
| 2026-05-06 05:02 | 52.24817 | 4.77343 | 860 ft | 128 kts | 5° |
| 2026-05-06 05:02 | 52.25705 | 4.77425 | 671 ft | 128 kts | 4° |
| 2026-05-06 05:02 | 52.26595 | 4.77506 | 479 ft | 128 kts | 5° |
| 2026-05-06 05:02 | 52.27483 | 4.77595 | 322 ft | 127 kts | 4° |
| 2026-05-06 05:03 | 52.28370 | 4.77679 | 185 ft | 129 kts | 3° |
| 2026-05-06 05:03 | 52.29272 | 4.77752 | 21 ft | 130 kts | 3° |
| 2026-05-06 05:03 | 52.30085 | 4.77828 | 3 ft | 97 kts | 4° |
| 2026-05-06 05:03 | 52.30607 | 4.77878 | 6 ft | 54 kts | 4° |
| 2026-05-06 05:04 | 52.30816 | 4.77884 | 0 ft | 22 kts | 352° |
| 2026-05-06 05:04 | 52.30956 | 4.77806 | -1 ft | 16 kts | 334° |
| 2026-05-06 05:04 | 52.31037 | 4.77740 | 4 ft | 10 kts | 333° |
| 2026-05-06 05:04 | 52.31108 | 4.77681 | 4 ft | 13 kts | 333° |
| 2026-05-06 05:05 | 52.31173 | 4.77642 | 4 ft | 10 kts | 350° |
| 2026-05-06 05:05 | 52.31256 | 4.77646 | 4 ft | 13 kts | 4° |
| 2026-05-06 05:05 | 52.31352 | 4.77652 | 4 ft | 13 kts | 1° |
| 2026-05-06 05:05 | 52.31440 | 4.77639 | 4 ft | 12 kts | 341° |
| 2026-05-06 05:06 | 52.31514 | 4.77552 | 4 ft | 15 kts | 316° |
| 2026-05-06 05:06 | 52.31573 | 4.77398 | 4 ft | 17 kts | 281° |
| 2026-05-06 05:06 | 52.31573 | 4.77195 | 4 ft | 16 kts | 267° |
| 2026-05-06 05:06 | 52.31567 | 4.77001 | 4 ft | 18 kts | 266° |
| 2026-05-06 05:07 | 52.31560 | 4.76798 | 4 ft | 19 kts | 266° |
| 2026-05-06 05:07 | 52.31552 | 4.76564 | 4 ft | 22 kts | 267° |
| 2026-05-06 05:07 | 52.31544 | 4.76303 | 4 ft | 24 kts | 266° |
| 2026-05-06 05:07 | 52.31538 | 4.76154 | 4 ft | 20 kts | 267° |
| 2026-05-06 05:08 | 52.31533 | 4.76017 | 4 ft | 6 kts | 267° |
| 2026-05-06 05:08 | 52.31525 | 4.75942 | 4 ft | 7 kts | 242° |
| 2026-05-06 05:08 | 52.31479 | 4.75920 | 4 ft | 9 kts | 182° |
| 2026-05-06 05:08 | 52.31408 | 4.75925 | 4 ft | 12 kts | 176° |
| 2026-05-06 05:09 | 52.31341 | 4.75932 | 4 ft | 8 kts | 176° |
| 2026-05-06 05:09 | 52.31316 | 4.75923 | 4 ft | 3 kts | 214° |
| 2026-05-06 05:09 | 52.31304 | 4.75886 | 4 ft | 5 kts | 251° |
| 2026-05-06 05:09 | 52.31301 | 4.75844 | 4 ft | 2 kts | 264° |
| 2026-05-06 05:10 | 52.31299 | 4.75820 | 4 ft | 0 kts | 264° |
| 2026-05-06 05:10 | 52.31299 | 4.75817 | 4 ft | 1 kts | 264° |
| 2026-05-06 05:10 | 52.31299 | 4.75811 | 4 ft | 0 kts | 264° |